createdAt,value
2023-03-13T08:29:29.273Z,432.00
2023-03-13T08:30:29.313Z,352.00
2023-03-13T08:31:29.438Z,316.00
2023-03-13T08:32:30.375Z,332.00
2023-03-13T08:33:30.709Z,360.00
2023-03-13T08:34:30.232Z,364.00
2023-03-13T08:35:30.232Z,376.00
2023-03-13T08:36:30.160Z,400.00
2023-03-13T08:37:30.145Z,448.00
2023-03-13T08:38:30.127Z,472.00
2023-03-13T08:39:30.115Z,504.00
2023-03-13T08:40:30.131Z,632.00
2023-03-13T08:41:30.112Z,720.00
2023-03-13T08:42:30.095Z,700.00
2023-03-13T08:43:30.067Z,632.00
2023-03-13T08:44:30.062Z,756.00
2023-03-13T08:45:30.108Z,960.00
2023-03-13T08:46:30.119Z,1004.00
2023-03-13T08:47:30.028Z,1048.00
2023-03-13T08:48:30.014Z,1020.00
2023-03-13T08:49:30.000Z,912.00
2023-03-13T08:50:30.003Z,976.00
2023-03-13T08:51:30.014Z,980.00
2023-03-13T08:52:29.969Z,912.00
2023-03-13T08:53:29.959Z,936.00
2023-03-13T08:54:29.967Z,964.00
2023-03-13T08:55:29.940Z,848.00
2023-03-13T08:56:29.957Z,660.00
2023-03-13T08:57:29.895Z,528.00
2023-03-13T08:58:29.889Z,516.00
2023-03-13T08:59:29.882Z,560.00
2023-03-13T09:00:29.868Z,624.00
2023-03-13T09:01:29.969Z,792.00
2023-03-13T09:02:29.882Z,932.00
2023-03-13T09:03:29.878Z,968.00
2023-03-13T09:04:30.222Z,972.00
2023-03-13T09:05:29.811Z,912.00
2023-03-13T09:06:29.804Z,936.00
2023-03-13T09:07:29.826Z,1048.00
2023-03-13T09:08:29.814Z,1272.00
2023-03-13T09:09:29.784Z,1484.00
2023-03-13T09:10:29.762Z,1716.00
2023-03-13T09:11:29.758Z,2044.00
2023-03-13T09:12:31.404Z,2384.00
2023-03-13T09:13:29.729Z,2448.00
2023-03-13T09:14:29.746Z,2476.00
2023-03-13T09:15:29.739Z,2492.00
2023-03-13T09:16:29.672Z,2344.00
2023-03-13T09:17:30.273Z,2228.00
2023-03-13T09:18:29.802Z,2604.00
2023-03-13T09:19:29.638Z,2684.00
2023-03-13T09:20:29.642Z,2848.00
2023-03-13T09:21:29.631Z,2812.00
2023-03-13T09:22:29.620Z,2788.00
2023-03-13T09:23:29.615Z,3180.00
2023-03-13T09:24:29.601Z,3252.00
2023-03-13T09:25:29.584Z,3404.00
2023-03-13T09:26:30.109Z,3624.00
2023-03-13T09:27:29.562Z,4244.00
2023-03-13T09:28:29.570Z,4256.00
2023-03-13T09:29:29.575Z,4456.00
2023-03-13T09:30:29.515Z,4120.00
2023-03-13T09:31:29.505Z,4752.00
2023-03-13T09:32:29.549Z,3172.00
2023-03-13T09:33:29.489Z,2664.00
2023-03-13T09:34:29.491Z,2204.00
2023-03-13T09:35:29.443Z,1796.00
2023-03-13T09:36:29.451Z,1452.00
2023-03-13T09:37:29.442Z,1224.00
2023-03-13T09:38:29.419Z,1044.00
2023-03-13T09:39:29.460Z,940.00
2023-03-13T09:40:29.426Z,892.00
2023-03-13T09:41:29.395Z,872.00
2023-03-13T09:42:29.371Z,908.00
2023-03-13T09:43:29.367Z,924.00
2023-03-13T09:44:29.379Z,864.00
2023-03-13T09:45:29.390Z,860.00
2023-03-13T09:46:29.389Z,936.00
2023-03-13T09:47:29.307Z,976.00
2023-03-13T09:48:29.340Z,900.00
2023-03-13T09:49:29.414Z,768.00
2023-03-13T09:50:29.330Z,656.00
2023-03-13T09:51:29.264Z,540.00
2023-03-13T09:52:29.269Z,488.00
2023-03-13T09:53:29.249Z,464.00
2023-03-13T09:54:29.251Z,496.00
2023-03-13T09:55:29.223Z,564.00
2023-03-13T09:56:29.241Z,572.00
2023-03-13T09:57:29.195Z,600.00
2023-03-13T09:58:29.172Z,612.00
2023-03-13T09:59:29.177Z,572.00
2023-03-13T10:00:29.195Z,572.00
2023-03-13T10:01:29.157Z,584.00
2023-03-13T10:02:29.122Z,596.00
2023-03-13T10:03:29.139Z,616.00
2023-03-13T10:04:29.181Z,632.00
2023-03-13T10:05:29.116Z,628.00
2023-03-13T10:06:29.086Z,624.00
2023-03-13T10:07:29.085Z,608.00
2023-03-13T10:08:29.057Z,652.00
2023-03-13T10:09:29.038Z,632.00
2023-03-13T10:24:59.828Z,700.00
2023-03-13T10:25:59.750Z,756.00
2023-03-13T10:26:59.771Z,716.00
2023-03-13T10:27:59.701Z,632.00
2023-03-13T10:28:59.738Z,588.00
2023-03-13T10:29:59.692Z,588.00
2023-03-13T10:30:59.794Z,756.00
2023-03-13T10:31:59.672Z,856.00
2023-03-13T10:32:59.754Z,708.00
2023-03-13T10:33:59.644Z,720.00
2023-03-13T10:34:59.642Z,940.00
2023-03-13T10:35:59.623Z,1168.00
2023-03-13T10:36:59.594Z,1416.00
2023-03-13T10:37:59.619Z,1696.00
2023-03-13T10:38:59.578Z,1776.00
2023-03-13T10:39:59.536Z,1556.00
2023-03-13T10:40:59.600Z,1356.00
2023-03-13T10:41:59.542Z,1248.00
2023-03-13T10:42:59.545Z,1136.00
2023-03-13T10:43:59.553Z,1096.00
2023-03-13T10:44:59.495Z,1052.00
2023-03-13T10:45:59.495Z,996.00
2023-03-13T10:46:59.491Z,900.00
2023-03-13T10:47:59.440Z,828.00
2023-03-13T10:48:59.422Z,804.00
2023-03-13T10:49:59.437Z,812.00
2023-03-13T10:51:01.938Z,872.00
2023-03-13T10:51:59.454Z,964.00
2023-03-13T10:52:59.414Z,1040.00
2023-03-13T10:53:59.431Z,1032.00
2023-03-13T10:54:59.419Z,1064.00
2023-03-13T10:55:59.374Z,980.00
2023-03-13T10:56:59.323Z,984.00
2023-03-13T10:57:59.346Z,1012.00
2023-03-13T10:58:59.398Z,1052.00
2023-03-13T10:59:59.308Z,1084.00
2023-03-13T11:00:59.278Z,1072.00
2023-03-13T11:01:59.291Z,1056.00
2023-03-13T11:02:59.465Z,1100.00
2023-03-13T11:03:59.369Z,1212.00
2023-03-13T11:04:59.224Z,1168.00
2023-03-13T11:05:59.237Z,1236.00
2023-03-13T11:07:00.371Z,1472.00
2023-03-13T11:08:00.442Z,1548.00
2023-03-13T11:09:00.379Z,1368.00
2023-03-13T11:10:00.311Z,1376.00
2023-03-13T11:11:00.313Z,1424.00
2023-03-13T11:12:00.265Z,1460.00
2023-03-13T11:13:00.436Z,1440.00
2023-03-13T11:14:00.400Z,1424.00
2023-03-13T11:15:00.358Z,1416.00
2023-03-13T11:16:00.342Z,1368.00
2023-03-13T11:17:00.333Z,1428.00
2023-03-13T11:18:00.235Z,1320.00
2023-03-13T11:19:00.174Z,1188.00
2023-03-13T11:20:00.177Z,1136.00
2023-03-13T11:21:12.186Z,1072.00
2023-03-13T11:22:00.203Z,972.00
2023-03-13T11:23:00.183Z,956.00
2023-03-13T11:24:00.135Z,948.00
2023-03-13T11:25:00.124Z,976.00
2023-03-13T11:26:00.122Z,980.00
2023-03-13T11:27:04.779Z,1044.00
2023-03-13T11:28:02.109Z,1112.00
2023-03-13T11:29:00.091Z,1096.00
2023-03-13T11:30:00.178Z,1060.00
2023-03-13T11:31:00.050Z,1016.00
2023-03-13T11:32:00.091Z,1048.00
2023-03-13T11:33:00.087Z,1168.00
2023-03-13T11:34:00.037Z,1332.00
2023-03-13T11:34:59.985Z,1316.00
2023-03-13T11:36:00.103Z,1180.00
2023-03-13T11:36:59.982Z,1048.00
2023-03-13T11:37:59.985Z,1112.00
2023-03-13T11:38:59.971Z,1204.00
2023-03-13T11:39:59.968Z,1232.00
2023-03-13T11:40:59.954Z,1156.00
2023-03-13T11:41:59.913Z,1128.00
2023-03-13T11:42:59.937Z,1072.00
2023-03-13T11:43:59.923Z,908.00
2023-03-13T11:44:59.904Z,856.00
2023-03-13T11:46:00.112Z,868.00
2023-03-13T11:47:00.096Z,932.00
2023-03-13T11:48:00.053Z,972.00
2023-03-13T11:48:59.885Z,968.00
2023-03-13T11:49:59.850Z,984.00
2023-03-13T11:50:59.842Z,968.00
2023-03-13T11:51:59.815Z,980.00
2023-03-13T11:52:59.891Z,984.00
2023-03-13T11:53:59.808Z,976.00
2023-03-13T11:54:59.793Z,1064.00
2023-03-13T11:55:59.839Z,1184.00
2023-03-13T11:56:59.765Z,1476.00
2023-03-13T11:57:59.773Z,1584.00
2023-03-13T11:58:59.759Z,1812.00
2023-03-13T11:59:59.721Z,1952.00
2023-03-13T12:00:59.739Z,2000.00
2023-03-13T12:01:59.724Z,1784.00
2023-03-13T12:02:59.711Z,1540.00
2023-03-13T12:03:59.746Z,1376.00
2023-03-13T12:04:59.734Z,1248.00
2023-03-13T12:05:59.653Z,1212.00
2023-03-13T12:06:59.661Z,1236.00
2023-03-13T12:08:00.113Z,1120.00
2023-03-13T12:08:59.631Z,1024.00
2023-03-13T12:09:59.627Z,980.00
2023-03-13T12:10:59.608Z,928.00
2023-03-13T12:11:59.602Z,956.00
2023-03-13T12:12:59.589Z,1032.00
2023-03-13T12:13:59.579Z,1080.00
2023-03-13T12:14:59.553Z,1168.00
2023-03-13T12:15:59.531Z,1232.00
2023-03-13T12:16:59.914Z,1300.00
2023-03-13T12:17:59.675Z,1352.00
2023-03-13T12:18:59.516Z,1328.00
2023-03-13T12:19:59.507Z,1340.00
2023-03-13T12:20:59.516Z,1348.00
2023-03-13T12:21:59.491Z,1292.00
2023-03-13T12:22:59.489Z,1196.00
2023-03-13T12:23:59.569Z,1104.00
2023-03-13T12:24:59.466Z,1076.00
2023-03-13T12:25:59.431Z,1052.00
2023-03-13T12:26:59.428Z,964.00
2023-03-13T12:27:59.486Z,784.00
2023-03-13T12:28:59.404Z,572.00
2023-03-13T12:29:59.397Z,568.00
2023-03-13T12:30:59.426Z,680.00
2023-03-13T12:31:59.364Z,808.00
2023-03-13T12:32:59.468Z,916.00
2023-03-13T12:33:59.360Z,1040.00
2023-03-13T12:34:59.351Z,1264.00
2023-03-13T12:35:59.410Z,1500.00
2023-03-13T12:36:59.320Z,1684.00
2023-03-13T12:37:59.326Z,1636.00
2023-03-13T12:38:59.356Z,1416.00
2023-03-13T12:39:59.294Z,1344.00
2023-03-13T12:40:59.265Z,1560.00
2023-03-13T12:41:59.258Z,1724.00
2023-03-13T12:42:59.281Z,1700.00
2023-03-13T12:44:09.022Z,1592.00
2023-03-13T12:45:00.271Z,1604.00
2023-03-13T12:45:59.363Z,1528.00
2023-03-13T12:46:59.224Z,1304.00
2023-03-13T12:47:59.227Z,1028.00
2023-03-13T12:48:59.194Z,924.00
2023-03-13T12:49:59.188Z,968.00
2023-03-13T12:50:59.182Z,1044.00
2023-03-13T12:51:59.161Z,1176.00
2023-03-13T12:52:59.127Z,1220.00
2023-03-13T12:53:59.203Z,1192.00
2023-03-13T12:54:59.160Z,996.00
2023-03-13T12:55:59.111Z,940.00
2023-03-13T12:56:59.087Z,1064.00
2023-03-13T12:57:59.087Z,1012.00
2023-03-13T12:58:59.090Z,900.00
2023-03-13T12:59:59.126Z,868.00
2023-03-13T13:00:59.036Z,848.00
2023-03-13T13:01:59.053Z,872.00
2023-03-13T13:02:59.759Z,856.00
2023-03-13T13:03:59.071Z,816.00
2023-03-13T13:04:59.016Z,792.00
2023-03-13T13:05:59.030Z,728.00
2023-03-13T13:06:58.970Z,664.00
2023-03-13T13:07:58.979Z,708.00
2023-03-13T13:08:58.950Z,780.00
2023-03-13T13:09:58.961Z,808.00
2023-03-13T13:10:58.962Z,720.00
2023-03-13T13:11:59.590Z,604.00
2023-03-13T13:12:58.914Z,548.00
2023-03-13T13:13:58.887Z,508.00
2023-03-13T13:14:58.903Z,496.00
2023-03-13T13:15:58.923Z,552.00
2023-03-13T13:16:58.883Z,692.00
2023-03-13T13:17:58.845Z,744.00
2023-03-13T13:18:58.854Z,744.00
2023-03-13T13:19:58.845Z,740.00
2023-03-13T13:20:58.809Z,680.00
2023-03-13T13:21:58.902Z,604.00
2023-03-13T13:22:58.783Z,560.00
2023-03-13T13:23:58.783Z,480.00
2023-03-13T13:24:58.923Z,436.00
2023-03-13T13:25:58.762Z,428.00
2023-03-13T13:26:58.806Z,416.00
2023-03-13T13:27:59.160Z,400.00
2023-03-13T13:28:58.722Z,384.00
2023-03-13T13:29:58.715Z,364.00
2023-03-13T13:30:58.921Z,340.00
2023-03-13T13:31:58.819Z,332.00
2023-03-13T13:32:58.724Z,392.00
2023-03-13T13:33:58.676Z,496.00
2023-03-13T13:34:58.665Z,464.00
2023-03-13T13:35:58.780Z,436.00
2023-03-13T13:36:58.631Z,444.00
2023-03-13T13:37:58.646Z,452.00
2023-03-13T13:38:58.611Z,464.00
2023-03-13T13:39:58.632Z,396.00
2023-03-13T13:40:58.605Z,376.00
2023-03-13T13:41:58.618Z,392.00
2023-03-13T13:42:58.590Z,368.00
2023-03-13T13:43:58.564Z,360.00
2023-03-13T13:44:58.588Z,324.00
2023-03-13T13:45:58.601Z,316.00
2023-03-13T13:46:58.544Z,288.00
2023-03-13T13:47:59.564Z,300.00
2023-03-13T13:48:58.500Z,348.00
2023-03-13T13:49:58.503Z,388.00
2023-03-13T13:50:58.497Z,500.00
2023-03-13T13:51:58.490Z,692.00
2023-03-13T13:52:58.523Z,776.00
2023-03-13T13:53:58.479Z,684.00
2023-03-13T13:54:58.449Z,640.00
2023-03-13T13:55:58.449Z,584.00
2023-03-13T13:56:58.492Z,596.00
2023-03-13T13:57:58.445Z,676.00
2023-03-13T13:58:58.433Z,720.00
2023-03-13T13:59:58.442Z,712.00
2023-03-13T14:03:36.981Z,636.00
2023-03-13T14:04:36.280Z,620.00
2023-03-13T14:05:36.077Z,688.00
2023-03-13T14:06:36.099Z,676.00
2023-03-13T14:07:36.069Z,600.00
2023-03-13T14:08:36.033Z,636.00
2023-03-13T14:09:37.382Z,624.00
2023-03-13T14:10:36.017Z,568.00
2023-03-13T14:11:36.001Z,492.00
2023-03-13T14:12:36.006Z,448.00
2023-03-13T14:13:36.001Z,424.00
2023-03-13T14:14:36.020Z,388.00
2023-03-13T14:15:35.964Z,372.00
2023-03-13T14:16:35.956Z,360.00
2023-03-13T14:17:35.934Z,404.00
2023-03-13T14:18:35.968Z,480.00
2023-03-13T14:19:35.922Z,592.00
2023-03-13T14:20:35.964Z,600.00
2023-03-13T14:21:35.892Z,604.00
2023-03-13T14:22:35.914Z,624.00
2023-03-13T14:23:35.877Z,592.00
2023-03-13T14:24:35.864Z,604.00
2023-03-13T14:25:35.881Z,720.00
2023-03-13T14:26:35.861Z,748.00
2023-03-13T14:27:35.839Z,684.00
2023-03-13T14:28:35.838Z,612.00
2023-03-13T14:29:35.807Z,544.00
2023-03-13T14:30:35.798Z,504.00
2023-03-13T14:31:35.907Z,524.00
2023-03-13T14:32:37.129Z,548.00
2023-03-13T14:33:39.272Z,660.00
2023-03-13T14:34:36.991Z,860.00
2023-03-13T14:35:36.942Z,1072.00
2023-03-13T14:36:36.882Z,1096.00
2023-03-13T14:37:36.849Z,1012.00
2023-03-13T14:38:36.836Z,892.00
2023-03-13T14:39:36.870Z,780.00
2023-03-13T14:40:36.821Z,636.00
2023-03-13T14:41:36.843Z,648.00
2023-03-13T14:42:36.804Z,632.00
2023-03-13T14:43:36.803Z,592.00
2023-03-13T14:44:36.810Z,552.00
2023-03-13T14:45:36.779Z,552.00
2023-03-13T14:46:36.927Z,580.00
2023-03-13T14:47:36.783Z,624.00
2023-03-13T14:48:36.733Z,664.00
2023-03-13T14:49:36.726Z,668.00
2023-03-13T14:50:36.721Z,668.00
2023-03-13T14:51:36.729Z,600.00
2023-03-13T14:52:36.683Z,500.00
2023-03-13T14:53:36.697Z,408.00
2023-03-13T14:54:36.673Z,400.00
2023-03-13T14:55:36.646Z,460.00
2023-03-13T14:56:36.722Z,496.00
2023-03-13T14:57:36.643Z,476.00
2023-03-13T14:58:37.848Z,544.00
2023-03-13T14:59:36.604Z,756.00
2023-03-13T15:00:36.665Z,784.00
2023-03-13T15:01:36.581Z,608.00
2023-03-13T15:02:36.649Z,588.00
2023-03-13T15:03:36.589Z,712.00
2023-03-13T15:04:37.622Z,700.00
2023-03-13T15:05:36.538Z,604.00
2023-03-13T15:06:36.561Z,524.00
2023-03-13T15:07:36.578Z,500.00
2023-03-13T15:08:36.588Z,560.00
2023-03-13T15:09:36.521Z,496.00
2023-03-13T15:10:36.509Z,380.00
2023-03-13T15:11:36.476Z,328.00
2023-03-13T15:12:36.464Z,300.00
2023-03-13T15:13:36.518Z,328.00
2023-03-13T15:14:36.450Z,308.00
2023-03-13T15:15:36.472Z,268.00
2023-03-13T15:16:36.487Z,260.00
2023-03-13T15:17:36.421Z,280.00
2023-03-13T15:18:36.472Z,308.00
2023-03-13T15:19:36.442Z,372.00
2023-03-13T15:20:36.381Z,504.00
2023-03-13T15:21:36.374Z,560.00
2023-03-13T15:22:36.373Z,536.00
2023-03-13T15:23:36.323Z,460.00
2023-03-13T15:24:36.338Z,396.00
2023-03-13T15:25:36.350Z,428.00
2023-03-13T15:26:36.322Z,452.00
2023-03-13T15:27:36.294Z,492.00
2023-03-13T15:28:36.319Z,588.00
2023-03-13T15:29:36.280Z,676.00
2023-03-13T15:30:36.258Z,692.00
2023-03-13T15:31:36.392Z,708.00
2023-03-13T15:32:36.329Z,796.00
2023-03-13T15:33:36.235Z,1092.00
2023-03-13T15:34:36.264Z,1480.00
2023-03-13T15:35:36.266Z,1316.00
2023-03-13T15:36:36.204Z,1024.00
2023-03-13T15:37:36.173Z,888.00
2023-03-13T15:38:36.170Z,884.00
2023-03-13T15:39:36.236Z,908.00
2023-03-13T15:40:36.161Z,744.00
2023-03-13T15:41:36.158Z,540.00
2023-03-13T15:42:36.140Z,380.00
2023-03-13T15:43:36.148Z,272.00
2023-03-13T15:44:36.140Z,200.00
2023-03-13T15:45:36.174Z,168.00
2023-03-13T15:46:36.413Z,172.00
2023-03-13T15:47:36.081Z,232.00
2023-03-13T15:48:36.108Z,396.00
2023-03-13T15:49:36.056Z,680.00
2023-03-13T15:50:36.115Z,812.00
2023-03-13T15:51:36.037Z,788.00
2023-03-13T15:52:36.047Z,720.00
2023-03-13T15:53:35.997Z,536.00
2023-03-13T15:54:35.982Z,492.00
2023-03-13T15:55:36.490Z,428.00
2023-03-13T15:56:36.072Z,412.00
2023-03-13T15:57:35.979Z,372.00
2023-03-13T15:58:35.967Z,244.00
2023-03-13T15:59:37.156Z,148.00
2023-03-13T16:00:35.931Z,116.00
2023-03-13T16:01:36.262Z,128.00
2023-03-13T16:02:35.918Z,168.00
2023-03-13T16:03:35.899Z,184.00
2023-03-13T16:04:35.936Z,168.00
2023-03-13T16:05:35.841Z,148.00
2023-03-13T16:06:36.619Z,132.00
2023-03-13T16:07:35.859Z,136.00
2023-03-13T16:08:36.859Z,160.00
2023-03-13T16:09:35.851Z,200.00
2023-03-13T16:10:35.940Z,272.00
2023-03-13T16:11:35.916Z,396.00
2023-03-13T16:12:35.988Z,544.00
2023-03-13T16:13:35.862Z,536.00
2023-03-13T16:14:35.804Z,404.00
2023-03-13T16:15:35.866Z,308.00
2023-03-13T16:16:37.580Z,268.00
2023-03-13T16:17:35.722Z,236.00
2023-03-13T16:18:35.812Z,244.00
2023-03-13T16:19:35.689Z,288.00
2023-03-13T16:20:35.733Z,332.00
2023-03-13T16:21:35.671Z,380.00
2023-03-13T16:22:36.718Z,468.00
2023-03-13T16:23:35.664Z,592.00
2023-03-13T16:24:35.661Z,920.00
2023-03-13T16:25:35.661Z,1460.00
2023-03-13T16:26:35.633Z,2168.00
2023-03-13T16:27:35.649Z,3284.00
2023-03-13T16:28:35.598Z,3304.00
2023-03-13T16:29:35.660Z,2376.00
2023-03-13T16:30:35.579Z,1652.00
2023-03-13T16:31:35.641Z,1200.00
2023-03-13T16:32:35.765Z,956.00
2023-03-13T16:33:35.530Z,788.00
2023-03-13T16:34:35.520Z,680.00
2023-03-13T16:35:35.570Z,616.00
2023-03-13T16:36:35.506Z,624.00
2023-03-13T16:37:35.511Z,584.00
2023-03-13T16:38:35.695Z,436.00
2023-03-13T16:39:35.492Z,316.00
2023-03-13T16:40:35.496Z,264.00
2023-03-13T16:41:36.126Z,260.00
2023-03-13T16:42:35.454Z,304.00
2023-03-13T16:43:35.486Z,312.00
2023-03-13T16:44:35.444Z,304.00
2023-03-13T16:45:35.517Z,308.00
2023-03-13T16:46:35.490Z,380.00
2023-03-13T16:47:35.387Z,548.00
2023-03-13T16:48:35.447Z,580.00
2023-03-13T16:49:35.412Z,576.00
2023-03-13T16:50:36.043Z,556.00
2023-03-13T16:51:35.357Z,528.00
2023-03-13T16:52:35.337Z,500.00
2023-03-13T16:53:35.334Z,564.00
2023-03-13T16:54:35.372Z,584.00
2023-03-13T16:55:35.370Z,516.00
2023-03-13T16:56:35.366Z,504.00
2023-03-13T16:57:35.284Z,540.00
2023-03-13T16:58:35.287Z,568.00
2023-03-13T16:59:35.358Z,556.00
2023-03-13T17:00:35.268Z,560.00
2023-03-13T17:01:35.277Z,548.00
2023-03-13T17:02:35.266Z,452.00
2023-03-13T17:03:35.222Z,384.00
2023-03-13T17:04:35.427Z,328.00
2023-03-13T17:05:35.204Z,264.00
2023-03-13T17:06:35.243Z,224.00
2023-03-13T17:07:35.193Z,200.00
2023-03-13T17:08:35.198Z,192.00
2023-03-13T17:09:35.160Z,192.00
2023-03-13T17:10:35.192Z,180.00
2023-03-13T17:11:35.133Z,164.00
2023-03-13T17:12:35.126Z,156.00
2023-03-13T17:13:35.136Z,156.00
2023-03-13T17:14:35.112Z,156.00
2023-03-13T17:15:35.201Z,152.00
2023-03-13T17:16:35.087Z,144.00
2023-03-13T17:17:35.079Z,140.00
2023-03-13T17:18:35.064Z,128.00
2023-03-13T17:19:35.040Z,120.00
2023-03-13T17:20:35.085Z,108.00
2023-03-13T17:21:35.036Z,100.00
2023-03-13T17:22:35.022Z,92.00
2023-03-13T17:23:35.001Z,84.00
2023-03-13T17:24:35.005Z,76.00
2023-03-13T17:25:34.981Z,64.00
2023-03-13T17:26:35.025Z,56.00
2023-03-13T17:27:35.005Z,48.00
2023-03-13T17:28:34.959Z,44.00
2023-03-13T17:29:34.910Z,40.00
2023-03-13T17:30:34.915Z,32.00
2023-03-13T17:31:35.965Z,28.00
2023-03-13T17:32:34.935Z,24.00
2023-03-13T17:33:35.043Z,20.00
2023-03-13T17:34:34.865Z,20.00
2023-03-13T17:35:35.114Z,16.00
2023-03-13T17:36:34.951Z,12.00
2023-03-13T17:37:34.866Z,12.00
2023-03-13T17:38:34.859Z,12.00
2023-03-13T17:39:34.861Z,8.00
2023-03-13T17:40:36.707Z,8.00
2023-03-13T17:41:34.840Z,4.00
2023-03-13T17:42:35.813Z,8.00
2023-03-13T17:43:34.797Z,4.00
2023-03-13T17:44:34.813Z,4.00
2023-03-13T17:45:34.788Z,4.00
2023-03-13T17:46:34.812Z,4.00
2023-03-13T17:47:34.782Z,0.00
2023-03-13T17:48:34.761Z,0.00
2023-03-13T17:49:34.703Z,4.00
2023-03-13T17:50:34.747Z,4.00
2023-03-13T17:51:34.740Z,0.00
2023-03-13T17:52:34.738Z,0.00
2023-03-13T17:53:34.739Z,0.00
2023-03-13T17:54:34.659Z,0.00
2023-03-13T17:56:09.744Z,0.00
2023-03-13T17:56:34.993Z,0.00
2023-03-13T17:57:34.948Z,0.00
2023-03-13T17:59:10.619Z,0.00
2023-03-13T17:59:35.255Z,0.00
2023-03-13T18:01:11.850Z,0.00
2023-03-13T18:01:35.031Z,0.00
2023-03-13T18:02:34.638Z,0.00
2023-03-13T18:03:34.576Z,0.00
2023-03-13T18:04:34.608Z,0.00
2023-03-13T18:05:34.607Z,0.00
2023-03-13T18:06:34.595Z,0.00
2023-03-13T18:07:34.560Z,0.00
2023-03-13T18:08:34.656Z,0.00
2023-03-13T18:09:34.538Z,0.00
2023-03-13T18:10:34.537Z,0.00
2023-03-13T18:11:34.535Z,0.00
2023-03-13T18:12:34.527Z,0.00
2023-03-13T18:13:36.878Z,0.00
2023-03-13T18:14:34.452Z,0.00
2023-03-13T18:15:34.458Z,0.00
2023-03-13T18:16:34.542Z,0.00
2023-03-13T18:17:34.482Z,0.00
2023-03-13T18:18:34.461Z,0.00
2023-03-13T18:19:34.449Z,0.00
2023-03-13T18:20:34.474Z,0.00
2023-03-13T18:21:34.443Z,0.00
2023-03-13T18:22:34.424Z,0.00
2023-03-13T18:23:34.385Z,0.00
2023-03-13T18:24:34.451Z,0.00
2023-03-13T18:25:34.359Z,0.00
2023-03-13T18:26:34.375Z,0.00
2023-03-13T18:27:34.325Z,0.00
2023-03-13T18:28:34.316Z,0.00
2023-03-13T18:29:34.333Z,0.00
2023-03-13T18:30:34.322Z,0.00
2023-03-13T18:31:34.360Z,0.00
2023-03-13T18:32:34.340Z,0.00
2023-03-13T18:33:34.243Z,0.00
2023-03-13T18:34:34.241Z,0.00
2023-03-13T18:35:34.248Z,0.00
2023-03-13T18:36:34.329Z,0.00
2023-03-13T18:37:34.240Z,0.00
2023-03-13T18:38:34.193Z,0.00
2023-03-13T18:39:34.185Z,0.00
2023-03-13T18:40:34.163Z,0.00
2023-03-13T18:41:34.180Z,0.00
2023-03-13T18:42:34.231Z,0.00
2023-03-13T18:43:34.156Z,0.00
2023-03-13T18:44:34.189Z,0.00
2023-03-13T18:45:34.127Z,0.00
2023-03-13T18:46:34.191Z,0.00
2023-03-13T18:47:34.159Z,0.00
2023-03-13T18:48:34.077Z,0.00
2023-03-13T18:49:34.094Z,0.00
2023-03-13T18:50:34.117Z,0.00
2023-03-13T18:51:34.053Z,0.00
2023-03-13T18:52:34.121Z,0.00
2023-03-13T18:53:34.044Z,0.00
2023-03-13T18:54:34.040Z,0.00
2023-03-13T18:55:34.025Z,0.00
2023-03-13T18:56:34.092Z,0.00
2023-03-13T18:57:33.992Z,0.00
2023-03-13T18:58:34.017Z,0.00
2023-03-13T18:59:34.008Z,0.00
2023-03-13T19:00:33.991Z,0.00
2023-03-13T19:01:34.012Z,0.00
2023-03-13T19:02:34.053Z,0.00
2023-03-13T19:03:33.971Z,0.00
2023-03-13T19:04:33.910Z,0.00
2023-03-13T19:05:33.899Z,0.00
2023-03-13T19:06:33.995Z,0.00
2023-03-13T19:07:33.883Z,0.00
2023-03-13T19:08:34.071Z,0.00
2023-03-13T19:09:47.674Z,0.00
2023-03-13T19:10:34.926Z,0.00
2023-03-13T19:11:33.826Z,0.00
2023-03-13T19:12:33.829Z,0.00
2023-03-13T19:13:33.865Z,0.00
2023-03-13T19:14:33.814Z,0.00
2023-03-13T19:15:33.769Z,0.00
2023-03-13T19:16:33.897Z,0.00
2023-03-13T19:17:33.764Z,0.00
2023-03-13T19:18:33.772Z,0.00
2023-03-13T19:19:33.769Z,0.00
2023-03-13T19:20:33.750Z,0.00
2023-03-13T19:21:33.744Z,0.00
2023-03-13T19:22:33.706Z,0.00
2023-03-13T19:23:33.712Z,0.00
2023-03-13T19:24:33.718Z,0.00
2023-03-13T19:25:33.723Z,0.00
2023-03-13T19:26:33.684Z,0.00
2023-03-13T19:27:33.675Z,0.00
2023-03-13T19:28:33.680Z,0.00
2023-03-13T19:29:33.679Z,0.00
2023-03-13T19:30:33.603Z,0.00
2023-03-13T19:31:33.733Z,0.00
2023-03-13T19:32:33.640Z,0.00
2023-03-13T19:33:33.618Z,0.00
2023-03-13T19:34:33.596Z,0.00
2023-03-13T19:35:33.572Z,0.00
2023-03-13T19:36:35.482Z,0.00
2023-03-13T19:37:33.549Z,0.00
2023-03-13T19:38:33.598Z,0.00
2023-03-13T19:39:33.678Z,0.00
2023-03-13T19:40:33.548Z,0.00
2023-03-13T19:41:33.483Z,0.00
2023-03-13T19:42:33.469Z,0.00
2023-03-13T19:43:33.499Z,0.00
2023-03-13T19:44:33.545Z,0.00
2023-03-13T19:45:33.475Z,0.00
2023-03-13T19:46:33.493Z,0.00
2023-03-13T19:47:33.440Z,0.00
2023-03-13T19:48:33.466Z,0.00
2023-03-13T19:49:33.423Z,0.00
2023-03-13T19:50:33.397Z,0.00
2023-03-13T19:51:33.402Z,0.00
2023-03-13T19:52:33.386Z,0.00
2023-03-13T19:53:33.543Z,0.00
2023-03-13T19:54:33.388Z,0.00
2023-03-13T19:55:33.350Z,0.00
2023-03-13T19:56:33.332Z,0.00
2023-03-13T19:57:33.295Z,0.00
2023-03-13T19:58:33.328Z,0.00
2023-03-13T19:59:33.294Z,0.00
2023-03-13T20:00:33.244Z,0.00
2023-03-13T20:01:33.289Z,0.00
2023-03-13T20:02:33.234Z,0.00
2023-03-13T20:03:34.277Z,0.00
2023-03-13T20:04:33.217Z,0.00
2023-03-13T20:05:33.179Z,0.00
2023-03-13T20:06:33.184Z,0.00
2023-03-13T20:07:33.234Z,0.00
2023-03-13T20:08:33.177Z,0.00
2023-03-13T20:09:35.435Z,0.00
2023-03-13T20:10:33.160Z,0.00
2023-03-13T20:11:33.133Z,0.00
2023-03-13T20:12:33.144Z,0.00
2023-03-13T20:13:33.122Z,0.00
2023-03-13T20:14:33.231Z,0.00
2023-03-13T20:15:33.115Z,0.00
2023-03-13T20:16:35.035Z,0.00
2023-03-13T20:17:33.088Z,0.00
2023-03-13T20:18:33.050Z,0.00
2023-03-13T20:19:33.069Z,0.00
2023-03-13T20:20:33.069Z,0.00
2023-03-13T20:21:33.152Z,0.00
2023-03-13T20:22:33.006Z,0.00
2023-03-13T20:23:32.987Z,0.00
2023-03-13T20:24:33.027Z,0.00
2023-03-13T20:25:33.018Z,0.00
2023-03-13T20:26:32.946Z,0.00
2023-03-13T20:27:32.986Z,0.00
2023-03-13T20:28:32.935Z,0.00
2023-03-13T20:29:32.901Z,0.00
2023-03-13T20:30:34.442Z,0.00
2023-03-13T20:31:33.114Z,0.00
2023-03-13T20:32:32.972Z,0.00
2023-03-13T20:33:32.889Z,0.00
2023-03-13T20:34:32.863Z,0.00
2023-03-13T20:35:32.918Z,0.00
2023-03-13T20:36:32.840Z,0.00
2023-03-13T20:37:32.819Z,0.00
2023-03-13T20:38:32.837Z,0.00
2023-03-13T20:39:32.835Z,0.00
2023-03-13T20:40:32.780Z,0.00
2023-03-13T20:41:40.141Z,0.00
2023-03-13T20:44:50.234Z,0.00
2023-03-13T20:45:50.292Z,0.00
2023-03-13T20:46:50.328Z,0.00
2023-03-13T20:47:51.652Z,0.00
2023-03-13T20:48:50.032Z,0.00
2023-03-13T20:49:50.018Z,0.00
2023-03-13T20:50:50.008Z,0.00
2023-03-13T20:51:50.005Z,0.00
2023-03-13T20:52:50.000Z,0.00
2023-03-13T20:53:49.960Z,0.00
2023-03-13T20:54:49.945Z,0.00
2023-03-13T21:02:54.944Z,0.00
2023-03-13T21:03:54.907Z,0.00
2023-03-13T21:04:54.921Z,0.00
2023-03-13T21:05:54.770Z,0.00
2023-03-13T21:06:54.685Z,0.00
2023-03-13T21:07:54.728Z,0.00
2023-03-13T21:08:54.699Z,0.00
2023-03-13T21:09:54.673Z,0.00
2023-03-13T21:10:54.638Z,0.00
2023-03-13T21:11:54.629Z,0.00
2023-03-13T21:12:54.608Z,0.00
2023-03-13T21:13:54.628Z,0.00
2023-03-13T21:14:54.583Z,0.00
2023-03-13T21:15:54.578Z,0.00
2023-03-13T21:16:54.573Z,0.00
2023-03-13T21:17:54.654Z,0.00
2023-03-13T21:18:54.691Z,0.00
2023-03-13T21:19:54.573Z,0.00
2023-03-13T21:20:54.621Z,0.00
2023-03-13T21:21:54.510Z,0.00
2023-03-13T21:22:54.481Z,0.00
2023-03-13T21:23:54.495Z,0.00
2023-03-13T21:24:54.630Z,0.00
2023-03-13T21:25:54.452Z,0.00
2023-03-13T21:26:55.250Z,0.00
2023-03-13T21:27:54.476Z,0.00
2023-03-13T21:28:54.418Z,0.00
2023-03-13T21:29:54.395Z,0.00
2023-03-13T21:30:54.494Z,0.00
2023-03-13T21:31:54.389Z,0.00
2023-03-13T21:32:54.476Z,0.00
2023-03-13T21:33:54.366Z,0.00